Time;durP1;ratioP1;P1;durP2;ratioP2;P2;SDS_P1;SDS_P2;PMS_P1;PMS_P2;Temp;Humidity;BMP_temperature;BMP_pressure;BME280_temperature;BME280_humidity;BME280_pressure;Samples;Min_cycle;Max_cycle;Signal;HPM_P1;HPM_P2
2021/06/18 00:00:46;;;;;;;15.43;14.02;;;;;;;;;;3602381;39;20410;-78
2021/06/18 00:03:12;;;;;;;14.57;13.27;;;;;;;;;;3612683;39;20399;-78
2021/06/18 00:05:38;;;;;;;16.40;14.93;;;;;;;;;;3613007;39;20367;-77
2021/06/18 00:08:04;;;;;;;17.83;16.33;;;;;;;;;;3591987;40;20673;-77
2021/06/18 00:10:31;;;;;;;17.80;16.20;;;;;;;;;;3598061;40;20412;-77
2021/06/18 00:12:57;;;;;;;14.63;13.32;;;;;;;;;;3603653;39;20368;-76
2021/06/18 00:15:23;;;;;;;17.48;15.93;;;;;;;;;;3601770;39;20417;-77
2021/06/18 00:17:51;;;;;;;14.90;13.70;;;;;;;;;;3596323;40;20375;-76
2021/06/18 00:20:17;;;;;;;16.00;14.55;;;;;;;;;;3599232;39;20450;-76
2021/06/18 00:22:44;;;;;;;16.63;15.13;;;;;;;;;;3601684;39;20687;-77
2021/06/18 00:25:11;;;;;;;13.80;12.60;;;;;;;;;;3600679;40;20762;-75
2021/06/18 00:27:37;;;;;;;13.45;12.25;;;;;;;;;;3596998;39;20397;-76
2021/06/18 00:30:03;;;;;;;13.48;12.27;;;;;;;;;;3601948;39;20365;-76
2021/06/18 00:32:30;;;;;;;11.90;10.90;;;;;;;;;;3601910;39;20369;-76
2021/06/18 00:34:57;;;;;;;11.43;10.45;;;;;;;;;;3602413;39;20369;-75
2021/06/18 00:37:23;;;;;;;11.43;10.43;;;;;;;;;;3602185;39;20437;-76
2021/06/18 00:39:50;;;;;;;10.10;9.30;;;;;;;;;;3601316;39;20379;-77
2021/06/18 00:42:16;;;;;;;10.35;9.45;;;;;;;;;;3596429;40;20392;-77
2021/06/18 00:44:42;;;;;;;10.32;9.43;;;;;;;;;;3601901;39;20719;-77
2021/06/18 00:47:13;;;;;;;9.90;9.15;;;;;;;;;;3601064;39;20388;-75
2021/06/18 00:49:40;;;;;;;15.25;13.77;;;;;;;;;;3592631;39;20394;-75
2021/06/18 00:52:08;;;;;;;14.97;13.57;;;;;;;;;;3602267;39;20400;-77
2021/06/18 00:54:36;;;;;;;15.52;14.02;;;;;;;;;;3604284;39;20367;-74
2021/06/18 00:57:02;;;;;;;14.38;13.15;;;;;;;;;;3599720;39;20765;-77
2021/06/18 00:59:28;;;;;;;16.95;15.02;;;;;;;;;;3600829;39;21218;-74
2021/06/18 01:01:54;;;;;;;14.45;13.25;;;;;;;;;;3599528;39;20658;-77
2021/06/18 01:04:23;;;;;;;14.50;13.32;;;;;;;;;;3602183;40;20481;-76
2021/06/18 01:06:51;;;;;;;13.80;12.60;;;;;;;;;;3606130;39;20414;-78
2021/06/18 01:09:20;;;;;;;12.95;11.88;;;;;;;;;;3614038;39;21908;-78
2021/06/18 01:11:49;;;;;;;11.93;10.93;;;;;;;;;;3611026;39;20371;-76
2021/06/18 01:14:19;;;;;;;13.05;11.85;;;;;;;;;;3605072;39;20365;-76
2021/06/18 01:16:48;;;;;;;11.57;10.37;;;;;;;;;;3610320;39;20735;-76
2021/06/18 01:19:19;;;;;;;11.20;10.20;;;;;;;;;;3612372;39;20366;-78
2021/06/18 01:21:46;;;;;;;12.98;11.57;;;;;;;;;;3603287;39;20391;-77
2021/06/18 01:24:30;;;;;;;13.23;12.00;;;;;;;;;;3602815;39;20401;-74
2021/06/18 01:27:15;;;;;;;11.02;9.93;;;;;;;;;;3609929;39;20379;-77
2021/06/18 01:29:44;;;;;;;11.75;10.75;;;;;;;;;;3612412;39;20375;-76
2021/06/18 01:32:13;;;;;;;11.80;10.80;;;;;;;;;;3603018;39;20401;-81
2021/06/18 01:34:40;;;;;;;14.02;12.77;;;;;;;;;;3610756;39;20379;-77
2021/06/18 01:37:08;;;;;;;12.90;11.80;;;;;;;;;;3611102;39;20455;-76
2021/06/18 01:39:34;;;;;;;14.98;13.55;;;;;;;;;;3611335;39;20351;-77
2021/06/18 01:42:01;;;;;;;15.07;13.60;;;;;;;;;;3609599;39;20476;-80
2021/06/18 01:44:28;;;;;;;14.35;13.05;;;;;;;;;;3611571;39;20359;-77
2021/06/18 01:46:56;;;;;;;14.70;13.40;;;;;;;;;;3602330;39;20438;-77
2021/06/18 01:49:23;;;;;;;17.20;15.52;;;;;;;;;;3611723;39;20850;-76
2021/06/18 01:51:51;;;;;;;16.42;14.93;;;;;;;;;;3604683;39;20411;-78
2021/06/18 01:54:19;;;;;;;15.27;13.95;;;;;;;;;;3614324;39;20372;-76
2021/06/18 01:56:52;;;;;;;12.93;11.83;;;;;;;;;;3611263;39;20371;-76
2021/06/18 01:59:19;;;;;;;14.05;12.80;;;;;;;;;;3611078;39;20374;-76
2021/06/18 02:01:47;;;;;;;12.85;11.75;;;;;;;;;;3612284;39;20366;-76
2021/06/18 02:04:16;;;;;;;15.20;13.90;;;;;;;;;;3608095;39;20390;-76
2021/06/18 02:06:43;;;;;;;13.02;11.90;;;;;;;;;;3600301;40;20435;-78
2021/06/18 02:09:09;;;;;;;13.85;12.55;;;;;;;;;;3601649;40;20725;-76
2021/06/18 02:11:38;;;;;;;14.02;12.82;;;;;;;;;;3602545;40;20361;-77
2021/06/18 02:14:08;;;;;;;14.23;13.02;;;;;;;;;;3600229;40;20373;-77
2021/06/18 02:16:35;;;;;;;14.90;13.65;;;;;;;;;;3602846;40;20357;-76
2021/06/18 02:19:02;;;;;;;13.93;12.65;;;;;;;;;;3591355;40;20385;-73
2021/06/18 02:21:30;;;;;;;15.40;14.00;;;;;;;;;;3602190;40;20353;-78
2021/06/18 02:23:58;;;;;;;17.63;15.93;;;;;;;;;;3603341;39;20397;-75
2021/06/18 02:26:25;;;;;;;17.90;16.10;;;;;;;;;;3603256;40;20392;-77
2021/06/18 02:28:52;;;;;;;14.98;13.63;;;;;;;;;;3602972;40;20377;-76
2021/06/18 02:31:19;;;;;;;17.50;15.80;;;;;;;;;;3602289;40;20381;-76
2021/06/18 02:33:45;;;;;;;15.30;13.77;;;;;;;;;;3590833;40;20758;-76
2021/06/18 02:36:11;;;;;;;15.45;14.10;;;;;;;;;;3600802;40;20458;-69
2021/06/18 02:38:39;;;;;;;15.75;14.23;;;;;;;;;;3592095;40;20379;-69
2021/06/18 02:41:05;;;;;;;15.20;13.90;;;;;;;;;;3592644;40;20410;-69
2021/06/18 02:43:31;;;;;;;15.75;14.35;;;;;;;;;;3592246;40;20372;-69
2021/06/18 02:45:57;;;;;;;15.40;14.10;;;;;;;;;;3590586;39;20370;-70
2021/06/18 02:48:25;;;;;;;14.48;13.18;;;;;;;;;;3599756;39;20408;-70
2021/06/18 02:50:55;;;;;;;16.48;15.05;;;;;;;;;;3572279;40;20656;-70
2021/06/18 02:53:25;;;;;;;15.98;14.50;;;;;;;;;;3593202;40;20372;-69
2021/06/18 02:55:53;;;;;;;16.67;15.07;;;;;;;;;;3596812;40;20452;-69
2021/06/18 02:58:22;;;;;;;16.65;15.15;;;;;;;;;;3587507;40;20361;-70
2021/06/18 03:00:48;;;;;;;14.40;13.20;;;;;;;;;;3595293;40;20418;-70
2021/06/18 03:03:18;;;;;;;15.75;14.25;;;;;;;;;;3592016;39;20453;-69
2021/06/18 03:05:47;;;;;;;15.17;13.77;;;;;;;;;;3599628;39;20361;-70
2021/06/18 03:08:15;;;;;;;16.58;14.98;;;;;;;;;;3601558;39;20411;-71
2021/06/18 03:10:43;;;;;;;15.38;13.85;;;;;;;;;;3598946;39;20361;-70
2021/06/18 03:13:13;;;;;;;13.93;12.73;;;;;;;;;;3601463;39;20362;-70
2021/06/18 03:15:41;;;;;;;13.80;12.52;;;;;;;;;;3597701;39;20409;-70
2021/06/18 03:18:08;;;;;;;14.30;13.05;;;;;;;;;;3605297;39;20709;-69
2021/06/18 03:20:35;;;;;;;14.13;12.90;;;;;;;;;;3607282;39;20436;-69
2021/06/18 03:23:02;;;;;;;14.90;13.40;;;;;;;;;;3596898;39;20397;-70
2021/06/18 03:25:29;;;;;;;14.18;12.88;;;;;;;;;;3592938;40;20477;-69
2021/06/18 03:27:56;;;;;;;15.88;14.23;;;;;;;;;;3605303;39;20381;-69
2021/06/18 03:30:25;;;;;;;15.27;13.98;;;;;;;;;;3601736;39;20486;-69
2021/06/18 03:32:53;;;;;;;19.23;15.07;;;22.30;99.90;;;;;;3606897;39;20744;-69
2021/06/18 03:35:20;;;;;;;16.83;15.13;;;21.50;99.90;;;;;;3592061;40;20919;-70
2021/06/18 03:37:47;;;;;;;15.20;13.80;;;21.40;99.90;;;;;;3603820;39;20384;-70
2021/06/18 03:40:14;;;;;;;15.15;13.82;;;21.40;99.90;;;;;;3606984;39;20385;-70
2021/06/18 03:42:41;;;;;;;15.83;14.23;;;21.30;99.90;;;;;;3604058;39;20363;-70
2021/06/18 03:45:08;;;;;;;14.40;13.20;;;21.30;99.90;;;;;;3595767;39;20398;-70
2021/06/18 03:47:37;;;;;;;15.13;13.73;;;21.40;99.90;;;;;;3600366;39;20770;-70
2021/06/18 03:50:05;;;;;;;16.52;14.82;;;21.40;99.90;;;;;;3606727;39;20364;-70
2021/06/18 03:52:31;;;;;;;14.68;13.32;;;21.40;99.90;;;;;;3606145;39;20401;-70
2021/06/18 03:54:57;;;;;;;14.57;13.27;;;21.40;99.90;;;;;;3597195;39;20395;-70
2021/06/18 03:57:24;;;;;;;15.00;13.50;;;;;;;;;;3606506;39;20364;-70
2021/06/18 03:59:51;;;;;;;14.45;13.15;;;21.30;99.90;;;;;;3606997;39;20632;-70
2021/06/18 04:02:20;;;;;;;14.25;12.93;;;21.30;99.90;;;;;;3603279;39;20376;-70
2021/06/18 04:04:48;;;;;;;15.38;13.85;;;;;;;;;;3594490;39;20394;-69
2021/06/18 04:07:14;;;;;;;14.25;13.00;;;;;;;;;;3593227;40;20420;-69
2021/06/18 04:09:41;;;;;;;14.90;13.43;;;;;;;;;;3596661;40;20494;-69
2021/06/18 04:12:08;;;;;;;14.18;12.80;;;;;;;;;;3596987;40;20365;-70
2021/06/18 04:14:35;;;;;;;14.75;13.25;;;;;;;;;;3590908;40;20357;-69
2021/06/18 04:17:01;;;;;;;14.83;13.33;;;;;;;;;;3591003;40;20728;-70
2021/06/18 04:19:28;;;;;;;15.77;14.27;;;21.30;99.90;;;;;;3594246;40;20401;-70
2021/06/18 04:21:59;;;;;;;13.77;12.63;;;21.10;99.90;;;;;;3591649;40;20371;-69
2021/06/18 04:24:25;;;;;;;14.25;12.85;;;21.10;99.90;;;;;;3595279;40;20667;-70
2021/06/18 04:26:50;;;;;;;17.38;15.77;;;21.10;99.90;;;;;;3595628;40;20372;-69
2021/06/18 04:29:16;;;;;;;13.90;12.68;;;21.10;99.90;;;;;;3594294;40;20735;-70
2021/06/18 04:31:44;;;;;;;15.68;14.32;;;21.10;99.90;;;;;;3595040;40;20365;-70
2021/06/18 04:34:10;;;;;;;16.55;14.95;;;;;;;;;;3592955;40;20643;-69
2021/06/18 04:36:36;;;;;;;18.13;16.45;;;;;;;;;;3587481;40;20379;-69
2021/06/18 04:39:04;;;;;;;16.92;15.32;;;;;;;;;;3595912;40;20446;-70
2021/06/18 04:41:31;;;;;;;19.08;17.17;;;21.00;99.90;;;;;;3594326;40;20400;-70
2021/06/18 04:43:57;;;;;;;16.63;15.13;;;20.80;99.90;;;;;;3594171;40;20361;-70
2021/06/18 04:46:23;;;;;;;15.02;13.63;;;20.80;99.90;;;;;;3587925;40;20402;-69
2021/06/18 04:48:50;;;;;;;15.45;13.85;;;20.80;99.90;;;;;;3593353;40;20446;-70
2021/06/18 04:51:16;;;;;;;17.40;15.80;;;20.90;99.90;;;;;;3592038;40;20376;-69
2021/06/18 04:53:43;;;;;;;16.90;15.40;;;20.90;99.90;;;;;;3587841;40;20366;-70
2021/06/18 04:56:11;;;;;;;19.58;17.10;;;;;;;;;;3594179;40;20371;-69
2021/06/18 04:58:38;;;;;;;18.67;16.88;;;20.50;99.90;;;;;;3592764;40;20634;-70
2021/06/18 05:01:04;;;;;;;16.35;14.75;;;;;;;;;;3595167;40;20407;-69
2021/06/18 05:03:30;;;;;;;16.65;15.05;;;20.50;99.90;;;;;;3593627;40;20396;-69
2021/06/18 05:05:57;;;;;;;17.38;15.77;;;20.60;99.90;;;;;;3590478;40;20830;-71
2021/06/18 05:08:23;;;;;;;15.32;13.90;;;20.60;99.90;;;;;;3600380;39;20457;-69
2021/06/18 05:10:49;;;;;;;16.45;14.85;;;20.70;99.90;;;;;;3586556;39;20395;-70
2021/06/18 05:13:17;;;;;;;16.37;14.97;;;20.80;99.90;;;;;;3595892;39;20439;-70
2021/06/18 05:15:43;;;;;;;16.75;14.98;;;20.90;99.90;;;;;;3600136;39;20689;-70
2021/06/18 05:18:09;;;;;;;15.07;13.82;;;21.00;99.90;;;;;;3605822;39;20379;-69
2021/06/18 05:20:35;;;;;;;16.90;15.43;;;21.10;99.90;;;;;;3602417;39;20453;-69
2021/06/18 05:23:01;;;;;;;16.50;15.02;;;;;;;;;;3605808;39;20367;-70
2021/06/18 05:25:27;;;;;;;15.77;14.32;;;21.20;99.90;;;;;;3602211;39;20361;-70
2021/06/18 05:27:53;;;;;;;16.05;14.73;;;21.30;99.90;;;;;;3603421;39;20649;-69
2021/06/18 05:30:21;;;;;;;16.38;14.98;;;21.40;99.90;;;;;;3596235;39;20374;-69
2021/06/18 05:32:48;;;;;;;15.05;13.63;;;21.40;99.90;;;;;;3604602;39;20475;-69
2021/06/18 05:35:14;;;;;;;15.30;13.93;;;21.40;99.90;;;;;;3605764;39;20367;-69
2021/06/18 05:37:40;;;;;;;15.63;14.23;;;;;;;;;;3606011;39;20427;-69
2021/06/18 05:40:08;;;;;;;16.85;15.25;;;;;;;;;;3607737;39;20382;-70
2021/06/18 05:42:34;;;;;;;15.57;14.20;;;21.40;99.90;;;;;;3591180;39;20396;-70
2021/06/18 05:45:00;;;;;;;16.67;15.18;;;21.60;99.90;;;;;;3603946;39;20369;-70
2021/06/18 05:47:27;;;;;;;16.10;14.60;;;21.70;99.90;;;;;;3603646;39;20370;-70
2021/06/18 05:49:53;;;;;;;15.32;13.90;;;21.80;99.90;;;;;;3606462;39;20640;-70
2021/06/18 05:52:19;;;;;;;14.50;13.23;;;21.80;99.90;;;;;;3598127;39;20403;-70
2021/06/18 05:54:45;;;;;;;14.40;13.07;;;22.00;99.90;;;;;;3607152;39;20366;-70
2021/06/18 05:57:11;;;;;;;14.60;13.35;;;22.00;99.90;;;;;;3600356;39;20650;-70
2021/06/18 05:59:37;;;;;;;14.03;12.73;;;20.10;99.90;;;;;;3603822;39;20437;-70
2021/06/18 06:02:04;;;;;;;14.70;13.40;;;22.20;99.90;;;;;;3584013;39;20502;-70
2021/06/18 06:04:31;;;;;;;14.70;13.50;;;22.30;99.90;;;;;;3592561;39;20466;-70
2021/06/18 06:06:57;;;;;;;15.00;13.60;;;22.40;99.90;;;;;;3607674;39;20421;-70
2021/06/18 06:09:23;;;;;;;15.18;13.82;;;22.40;99.90;;;;;;3607485;39;20779;-70
2021/06/18 06:11:49;;;;;;;16.08;14.57;;;;;;;;;;3604529;39;20367;-70
2021/06/18 06:14:17;;;;;;;15.60;14.20;;;;;;;;;;3596862;39;20383;-70
2021/06/18 06:16:45;;;;;;;15.63;14.23;;;;;;;;;;3604788;39;20475;-71
2021/06/18 06:19:11;;;;;;;17.35;15.68;;;;;;;;;;3603529;39;20760;-72
2021/06/18 06:21:43;;;;;;;15.85;14.55;;;;;;;;;;3595682;39;20637;-73
2021/06/18 06:24:09;;;;;;;13.85;12.65;;;;;;;;;;3605953;39;20382;-73
2021/06/18 06:26:36;;;;;;;13.90;12.77;;;;;;;;;;3604701;39;20365;-72
2021/06/18 06:29:02;;;;;;;15.32;13.95;;;22.50;99.90;;;;;;3607201;39;20632;-71
2021/06/18 06:31:28;;;;;;;15.30;14.00;;;23.00;99.90;;;;;;3597223;39;20382;-70
2021/06/18 06:33:54;;;;;;;16.92;15.32;;;23.10;99.90;;;;;;3602604;39;20382;-71
2021/06/18 06:36:21;;;;;;;13.85;12.68;;;23.10;99.90;;;;;;3602795;39;20399;-73
2021/06/18 06:38:48;;;;;;;14.68;13.38;;;23.10;99.90;;;;;;3594577;39;20412;-71
2021/06/18 06:41:14;;;;;;;14.27;12.98;;;;;;;;;;3600632;39;20369;-71
2021/06/18 06:43:40;;;;;;;13.30;12.10;;;23.20;99.90;;;;;;3596721;39;20383;-70
2021/06/18 06:46:06;;;;;;;15.07;13.68;;;;;;;;;;3603448;39;20425;-69
2021/06/18 06:48:33;;;;;;;14.93;13.50;;;;;;;;;;3606921;39;20375;-70
2021/06/18 06:50:59;;;;;;;16.17;14.77;;;;;;;;;;3591626;39;20413;-72
2021/06/18 06:53:25;;;;;;;16.92;15.38;;;23.30;99.90;;;;;;3604490;39;20690;-73
2021/06/18 06:55:52;;;;;;;16.08;14.68;;;;;;;;;;3593426;39;20458;-73
2021/06/18 06:58:18;;;;;;;14.88;13.50;;;;;;;;;;3597048;39;20733;-73
2021/06/18 07:00:45;;;;;;;17.65;16.08;;;;;;;;;;3606386;39;20744;-70
2021/06/18 07:03:11;;;;;;;16.70;15.10;;;;;;;;;;3606628;39;20438;-70
2021/06/18 07:05:37;;;;;;;165.55;51.15;;;;;;;;;;3597473;39;20403;-71
2021/06/18 07:08:13;;;;;;;34.00;21.33;;;;;;;;;;3601862;39;20700;-69
2021/06/18 07:10:39;;;;;;;16.92;15.32;;;;;;;;;;3605079;39;20453;-70
2021/06/18 07:13:07;;;;;;;18.17;16.48;;;;;;;;;;3597532;39;20439;-70
2021/06/18 07:15:33;;;;;;;15.30;14.00;;;23.70;99.90;;;;;;3606986;39;20464;-70
2021/06/18 07:17:59;;;;;;;15.63;14.13;;;;;;;;;;3605363;39;20388;-71
2021/06/18 07:20:25;;;;;;;14.90;13.60;;;;;;;;;;3600111;39;20716;-70
2021/06/18 07:22:51;;;;;;;16.35;14.85;;;;;;;;;;3605763;39;20394;-70
2021/06/18 07:25:17;;;;;;;16.50;15.07;;;;;;;;;;3606006;39;20632;-70
2021/06/18 07:27:43;;;;;;;15.60;14.20;;;;;;;;;;3606801;39;20736;-70
2021/06/18 07:30:12;;;;;;;13.07;11.82;;;;;;;;;;3597357;39;20392;-70
2021/06/18 07:32:38;;;;;;;13.55;12.25;;;;;;;;;;3599436;39;20379;-70
2021/06/18 07:35:05;;;;;;;15.07;12.05;;;;;;;;;;3597352;39;20402;-70
2021/06/18 07:37:31;;;;;;;12.50;11.40;;;;;;;;;;3606908;39;20367;-70
2021/06/18 07:39:57;;;;;;;12.07;11.07;;;;;;;;;;3605015;39;20351;-70
2021/06/18 07:42:23;;;;;;;12.25;11.05;;;;;;;;;;3606230;39;20377;-70
2021/06/18 07:44:49;;;;;;;13.95;12.55;;;;;;;;;;3607122;39;20402;-70
2021/06/18 07:47:17;;;;;;;13.30;12.00;;;;;;;;;;3603145;39;20641;-70
2021/06/18 07:49:43;;;;;;;12.88;11.75;;;;;;;;;;3610486;39;20386;-70
2021/06/18 07:52:09;;;;;;;13.23;12.00;;;;;;;;;;3606177;39;20465;-70
2021/06/18 07:54:36;;;;;;;13.18;11.98;;;;;;;;;;3600639;39;20746;-70
2021/06/18 07:57:02;;;;;;;13.95;12.65;;;;;;;;;;3601830;39;20732;-70
2021/06/18 07:59:28;;;;;;;14.57;12.25;;;;;;;;;;3595262;39;20404;-70
2021/06/18 08:01:54;;;;;;;14.35;13.05;;;;;;;;;;3606318;39;20363;-70
2021/06/18 08:04:22;;;;;;;13.77;12.45;;;;;;;;;;3607224;39;20439;-70
2021/06/18 08:06:48;;;;;;;13.25;12.10;;;;;;;;;;3606650;39;20617;-70
2021/06/18 08:09:14;;;;;;;12.88;11.68;;;;;;;;;;3606780;39;20385;-70
2021/06/18 08:11:40;;;;;;;11.52;10.52;;;;;;;;;;3606971;39;20394;-72
2021/06/18 08:14:06;;;;;;;12.57;11.30;;;;;;;;;;3597235;39;20768;-70
2021/06/18 08:16:33;;;;;;;12.73;10.75;;;;;;;;;;3599879;39;20383;-70
2021/06/18 08:18:59;;;;;;;10.35;9.40;;;;;;;;;;3606625;39;20367;-70
2021/06/18 08:21:27;;;;;;;11.93;10.80;;;;;;;;;;3592866;39;20403;-71
2021/06/18 08:23:53;;;;;;;10.82;9.82;;;;;;;;;;3597091;39;20394;-70
2021/06/18 08:26:19;;;;;;;10.60;9.68;;;24.60;99.90;;;;;;3594544;39;20622;-70
2021/06/18 08:28:45;;;;;;;9.90;9.00;;;27.40;99.20;;;;;;3605617;39;20752;-70
2021/06/18 08:31:12;;;;;;;9.15;8.35;;;;;;;;;;3603850;39;20383;-70
2021/06/18 08:33:38;;;;;;;10.23;9.32;;;;;;;;;;3600897;39;20374;-70
2021/06/18 08:36:06;;;;;;;8.40;7.70;;;;;;;;;;3596608;39;20406;-69
2021/06/18 08:38:34;;;;;;;7.23;6.53;;;;;;;;;;3604564;39;20408;-70
2021/06/18 08:41:02;;;;;;;5.95;5.40;;;;;;;;;;3593480;39;20391;-71
2021/06/18 08:43:28;;;;;;;6.65;6.15;;;;;;;;;;3594863;39;20541;-70
2021/06/18 08:45:54;;;;;;;5.07;4.57;;;;;;;;;;3604446;39;20719;-70
2021/06/18 08:48:20;;;;;;;4.28;3.90;;;;;;;;;;3600387;39;20391;-70
2021/06/18 08:50:47;;;;;;;5.63;4.18;;;;;;;;;;3595082;39;20403;-72
2021/06/18 08:53:14;;;;;;;5.50;4.37;;;;;;;;;;3604903;39;20842;-70
2021/06/18 08:55:41;;;;;;;6.55;4.80;;;;;;;;;;3606196;39;20747;-69
2021/06/18 08:58:07;;;;;;;4.88;4.47;;;;;;;;;;3596627;39;20398;-70
2021/06/18 09:00:34;;;;;;;4.47;4.07;;;;;;;;;;3605993;39;20379;-70
2021/06/18 09:03:00;;;;;;;5.60;5.07;;;;;;;;;;3593509;39;20407;-70
2021/06/18 09:05:27;;;;;;;5.87;5.27;;;;;;;;;;3596825;39;20843;-71
2021/06/18 09:07:54;;;;;;;5.68;5.20;;;;;;;;;;3606050;39;20399;-70
2021/06/18 09:10:31;;;;;;;5.80;5.30;;;;;;;;;;3604496;39;20373;-70
2021/06/18 09:13:13;;;;;;;5.97;4.35;;;;;;;;;;3603753;39;20377;-69
2021/06/18 09:15:39;;;;;;;5.13;4.63;;;;;;;;;;3580608;40;20405;-69
2021/06/18 09:18:36;;;;;;;4.95;3.97;;;;;;;;;;3579528;40;20416;-69
2021/06/18 09:21:17;;;;;;;6.63;3.60;;;;;;;;;;3516602;40;20406;-69
2021/06/18 09:23:44;;;;;;;3.83;3.53;;;;;;;;;;3513676;40;20536;-70
2021/06/18 09:26:21;;;;;;;3.83;3.53;;;;;;;;;;3516047;40;20395;-70
2021/06/18 09:28:59;;;;;;;2.80;2.60;;;;;;;;;;3520020;40;20401;-70
2021/06/18 09:31:25;;;;;;;3.50;2.80;;;;;;;;;;3554677;40;20395;-70
2021/06/18 09:33:51;;;;;;;4.38;2.65;;;;;;;;;;3557046;40;20409;-69
2021/06/18 09:36:18;;;;;;;9.35;3.67;;;;;;;;;;3559592;40;20394;-70
2021/06/18 09:38:49;;;;;;;3.20;2.25;;;27.40;98.50;;;;;;3558404;40;20387;-71
2021/06/18 09:41:32;;;;;;;4.03;2.50;;;29.20;82.30;;;;;;3557716;40;20693;-70
2021/06/18 09:44:01;;;;;;;3.05;2.47;;;29.50;83.10;;;;;;3561298;40;20388;-71
2021/06/18 09:46:46;;;;;;;4.65;2.65;;;29.50;81.60;;;;;;3564035;40;20443;-70
2021/06/18 09:49:34;;;;;;;2.50;2.30;;;29.60;81.20;;;;;;3578135;40;20382;-70
2021/06/18 09:52:01;;;;;;;3.42;2.40;;;29.80;77.70;;;;;;3588697;39;20395;-70
2021/06/18 09:54:32;;;;;;;4.40;2.78;;;29.60;83.40;;;;;;3605938;39;20370;-70
2021/06/18 09:57:09;;;;;;;3.35;2.70;;;29.50;79.20;;;;;;3605975;39;20467;-70
2021/06/18 09:59:58;;;;;;;2.58;2.35;;;29.40;83.30;;;;;;3607061;39;20375;-70
2021/06/18 10:02:35;;;;;;;2.67;2.47;;;;;;;;;;3597101;39;20407;-71
2021/06/18 10:05:03;;;;;;;2.70;2.50;;;29.70;83.60;;;;;;3594731;40;20444;-71
2021/06/18 10:07:31;;;;;;;2.80;2.60;;;;;;;;;;3593486;40;20528;-71
2021/06/18 10:09:58;;;;;;;3.67;2.72;;;30.20;80.50;;;;;;3595587;40;20477;-71
2021/06/18 10:12:25;;;;;;;3.20;2.35;;;30.30;76.50;;;;;;3595579;40;20415;-70
2021/06/18 10:14:54;;;;;;;2.58;2.38;;;30.40;76.90;;;;;;3594723;40;20409;-71
2021/06/18 10:17:20;;;;;;;4.78;2.58;;;30.60;76.70;;;;;;3595266;40;20477;-71
2021/06/18 10:19:46;;;;;;;3.45;2.40;;;30.70;78.70;;;;;;3595374;40;20415;-70
2021/06/18 10:22:15;;;;;;;3.00;2.70;;;30.70;77.40;;;;;;3601058;39;20375;-70
2021/06/18 10:24:45;;;;;;;3.40;2.80;;;30.80;78.60;;;;;;3600844;39;20402;-69
2021/06/18 10:27:16;;;;;;;3.20;2.70;;;30.90;75.30;;;;;;3603387;39;20371;-71
2021/06/18 10:29:42;;;;;;;2.88;2.20;;;30.90;77.20;;;;;;3600870;39;20392;-71
2021/06/18 10:32:27;;;;;;;2.22;1.92;;;;;;;;;;3591752;39;20402;-70
2021/06/18 10:34:54;;;;;;;3.90;2.90;;;30.80;76.60;;;;;;3596677;39;20374;-71
2021/06/18 10:37:22;;;;;;;2.95;2.70;;;31.00;76.80;;;;;;3605127;39;20465;-71
2021/06/18 10:39:50;;;;;;;5.63;2.75;;;30.60;74.90;;;;;;3606480;39;20363;-71
2021/06/18 10:42:17;;;;;;;4.37;3.07;;;30.60;75.40;;;;;;3601181;39;20369;-70
2021/06/18 10:44:48;;;;;;;3.25;2.78;;;30.50;76.80;;;;;;3604948;39;20374;-70
2021/06/18 10:47:53;;;;;;;2.75;2.40;;;30.80;77.70;;;;;;3605157;39;20457;-70
2021/06/18 10:50:47;;;;;;;3.40;3.10;;;31.00;74.90;;;;;;3604057;39;20395;-70
2021/06/18 10:53:21;;;;;;;3.30;3.00;;;;;;;;;;3606570;39;20403;-70
2021/06/18 10:55:48;;;;;;;3.30;2.97;;;;;;;;;;3605033;39;20370;-70
2021/06/18 10:58:14;;;;;;;2.47;2.28;;;;;;;;;;3603610;39;20359;-72
2021/06/18 11:00:40;;;;;;;3.33;3.03;;;;;;;;;;3606786;39;20449;-71
2021/06/18 11:03:06;;;;;;;4.03;2.90;;;;;;;;;;3603285;39;20379;-71
2021/06/18 11:05:38;;;;;;;3.70;2.80;;;;;;;;;;3603808;39;20370;-70
2021/06/18 11:08:19;;;;;;;2.92;2.53;;;;;;;;;;3605664;39;20409;-69
2021/06/18 11:10:45;;;;;;;2.38;2.17;;;;;;;;;;3595207;39;20390;-70
2021/06/18 11:13:12;;;;;;;3.00;2.13;;;;;;;;;;3606881;39;20363;-69
2021/06/18 11:15:40;;;;;;;3.08;2.08;;;;;;;;;;3606999;39;20370;-70
2021/06/18 11:18:17;;;;;;;1.80;1.70;;;;;;;;;;3605265;39;20359;-72
2021/06/18 11:20:51;;;;;;;3.08;2.00;;;;;;;;;;3590538;39;20404;-71
2021/06/18 11:23:21;;;;;;;2.60;2.20;;;;;;;;;;3603593;39;20746;-69
2021/06/18 11:25:56;;;;;;;4.45;2.72;;;31.40;74.20;;;;;;3604378;39;20790;-69
2021/06/18 11:28:39;;;;;;;3.60;2.40;;;31.20;68.50;;;;;;3596471;39;20402;-70
2021/06/18 11:31:09;;;;;;;2.90;2.30;;;31.50;68.70;;;;;;3601667;39;20386;-70
2021/06/18 11:33:58;;;;;;;3.05;2.13;;;31.50;68.20;;;;;;3600355;39;20368;-70
2021/06/18 11:36:43;;;;;;;3.08;2.42;;;31.80;67.50;;;;;;3603939;39;20371;-70
2021/06/18 11:39:25;;;;;;;3.08;2.33;;;31.50;68.30;;;;;;3587579;39;20393;-70
2021/06/18 11:42:02;;;;;;;2.80;2.42;;;;;;;;;;3604044;39;20740;-70
2021/06/18 11:44:29;;;;;;;2.85;2.60;;;;;;;;;;3590996;39;20392;-71
2021/06/18 11:46:56;;;;;;;1.85;1.75;;;31.60;68.00;;;;;;3593989;39;20404;-70
2021/06/18 11:49:29;;;;;;;2.40;2.20;;;32.70;66.60;;;;;;3600812;39;20391;-70
2021/06/18 11:52:04;;;;;;;3.65;2.38;;;32.90;65.20;;;;;;3603037;39;20406;-70
2021/06/18 11:54:33;;;;;;;3.30;2.77;;;33.00;64.60;;;;;;3595452;39;20451;-70
2021/06/18 11:57:20;;;;;;;2.30;2.10;;;32.60;65.30;;;;;;3595190;39;20803;-70
2021/06/18 11:59:58;;;;;;;2.53;2.35;;;32.60;66.30;;;;;;3603711;39;20367;-70
2021/06/18 12:02:28;;;;;;;2.20;2.00;;;32.50;65.40;;;;;;3599513;39;20455;-70
2021/06/18 12:05:03;;;;;;;3.20;2.70;;;32.60;66.00;;;;;;3597139;39;20403;-71
2021/06/18 12:07:30;;;;;;;2.53;2.20;;;32.80;66.40;;;;;;3600618;39;20415;-70
2021/06/18 12:09:58;;;;;;;2.80;2.10;;;32.90;64.40;;;;;;3604817;39;20398;-70
2021/06/18 12:12:24;;;;;;;3.05;2.55;;;33.00;63.90;;;;;;3603432;39;20378;-70
2021/06/18 12:14:59;;;;;;;2.10;2.00;;;33.00;65.70;;;;;;3604838;39;20398;-70
2021/06/18 12:17:26;;;;;;;2.80;2.25;;;32.90;64.80;;;;;;3598366;39;20769;-70
2021/06/18 12:19:53;;;;;;;3.43;2.30;;;;;;;;;;3604377;39;20361;-70
2021/06/18 12:22:20;;;;;;;3.58;2.67;;;;;;;;;;3602581;39;20391;-70
2021/06/18 12:24:47;;;;;;;3.80;2.70;;;;;;;;;;3594273;39;20762;-70
2021/06/18 12:27:16;;;;;;;3.80;2.50;;;;;;;;;;3604664;39;20354;-70
2021/06/18 12:29:52;;;;;;;4.40;2.17;;;32.80;63.70;;;;;;3601087;39;20468;-69
2021/06/18 12:32:18;;;;;;;2.75;2.55;;;32.20;66.90;;;;;;3604133;39;20639;-70
2021/06/18 12:34:48;;;;;;;4.90;2.80;;;32.10;68.70;;;;;;3600168;39;20629;-71
2021/06/18 12:37:14;;;;;;;3.15;2.50;;;;;;;;;;3593483;39;20759;-70
2021/06/18 12:39:47;;;;;;;4.82;2.80;;;;;;;;;;3603612;39;20465;-71
2021/06/18 12:42:18;;;;;;;3.83;2.78;;;;;;;;;;3604434;39;20386;-73
2021/06/18 12:44:44;;;;;;;3.33;2.88;;;;;;;;;;3603726;39;20378;-70
2021/06/18 12:47:11;;;;;;;3.95;2.22;;;;;;;;;;3602190;39;20480;-70
2021/06/18 12:49:37;;;;;;;3.05;2.38;;;;;;;;;;3604870;39;20379;-71
2021/06/18 12:52:12;;;;;;;3.47;2.28;;;31.90;67.30;;;;;;3605145;39;20452;-70
2021/06/18 12:54:40;;;;;;;3.58;2.22;;;33.00;63.40;;;;;;3593825;40;20469;-70
2021/06/18 12:57:07;;;;;;;2.50;2.30;;;;;;;;;;3593715;39;20483;-70
2021/06/18 12:59:39;;;;;;;2.45;2.08;;;33.20;63.40;;;;;;3604150;39;20864;-71
2021/06/18 13:02:06;;;;;;;2.90;2.28;;;33.10;63.80;;;;;;3607671;39;20363;-72
2021/06/18 13:04:33;;;;;;;2.93;2.37;;;33.40;62.50;;;;;;3607678;39;20729;-71
2021/06/18 13:07:00;;;;;;;3.13;2.27;;;33.50;62.30;;;;;;3598409;39;20667;-71
2021/06/18 13:09:34;;;;;;;2.67;2.13;;;33.40;62.00;;;;;;3607170;39;20403;-71
2021/06/18 13:12:00;;;;;;;2.80;2.20;;;33.60;62.10;;;;;;3595640;39;20396;-71
2021/06/18 13:14:27;;;;;;;3.10;2.80;;;33.80;63.20;;;;;;3598763;39;20458;-71
2021/06/18 13:17:03;;;;;;;2.85;2.38;;;33.60;62.60;;;;;;3607266;39;20411;-71
2021/06/18 13:19:40;;;;;;;2.47;2.00;;;33.10;62.70;;;;;;3597723;39;20637;-71
2021/06/18 13:22:11;;;;;;;2.67;2.30;;;33.10;62.50;;;;;;3603604;39;20379;-70
2021/06/18 13:24:51;;;;;;;5.72;3.10;;;33.50;61.70;;;;;;3606530;39;20630;-71
2021/06/18 13:27:17;;;;;;;3.58;2.67;;;33.30;62.60;;;;;;3607970;39;20371;-71
2021/06/18 13:29:51;;;;;;;4.32;3.17;;;;;;;;;;3592379;39;20843;-71
2021/06/18 13:32:19;;;;;;;5.50;3.00;;;;;;;;;;3606742;39;20437;-71
2021/06/18 13:34:53;;;;;;;5.03;2.50;;;33.50;62.80;;;;;;3607356;39;20669;-71
2021/06/18 13:37:25;;;;;;;3.20;2.35;;;33.30;62.20;;;;;;3605883;39;20737;-70
2021/06/18 13:40:17;;;;;;;2.72;2.47;;;33.20;62.80;;;;;;3600674;39;20702;-72
2021/06/18 13:42:43;;;;;;;2.08;1.98;;;32.90;60.50;;;;;;3604463;39;20366;-71
2021/06/18 13:45:10;;;;;;;2.78;2.13;;;32.40;63.00;;;;;;3607585;39;20657;-71
2021/06/18 13:47:38;;;;;;;2.75;2.28;;;32.40;61.80;;;;;;3607630;39;20379;-71